createdAt,value
2023-01-08T00:00:39.882Z,23.63
2023-01-08T00:01:39.845Z,23.65
2023-01-08T00:02:39.840Z,23.66
2023-01-08T00:03:39.870Z,23.63
2023-01-08T00:04:39.710Z,23.66
2023-01-08T00:05:39.660Z,23.66
2023-01-08T00:06:39.692Z,23.65
2023-01-08T00:07:39.566Z,23.65
2023-01-08T00:08:39.534Z,23.63
2023-01-08T00:09:39.480Z,23.66
2023-01-08T00:10:39.430Z,23.65
2023-01-08T00:11:39.396Z,23.66
2023-01-08T00:12:39.347Z,23.65
2023-01-08T00:13:39.314Z,23.65
2023-01-08T00:14:39.281Z,23.65
2023-01-08T00:15:39.266Z,23.65
2023-01-08T00:16:39.237Z,23.66
2023-01-08T00:17:39.160Z,23.66
2023-01-08T00:18:39.122Z,23.67
2023-01-08T00:19:39.083Z,23.65
2023-01-08T00:20:39.038Z,23.63
2023-01-08T00:21:39.003Z,23.62
2023-01-08T00:22:39.064Z,23.62
2023-01-08T00:23:38.916Z,23.62
2023-01-08T00:24:38.876Z,23.62
2023-01-08T00:25:38.843Z,23.62
2023-01-08T00:26:38.802Z,23.62
2023-01-08T00:27:38.770Z,23.59
2023-01-08T00:28:38.723Z,23.59
2023-01-08T00:29:38.697Z,23.59
2023-01-08T00:30:38.680Z,23.60
2023-01-08T00:31:38.617Z,23.60
2023-01-08T00:32:38.577Z,23.62
2023-01-08T00:33:38.535Z,23.60
2023-01-08T00:34:38.502Z,23.60
2023-01-08T00:35:38.456Z,23.60
2023-01-08T00:36:38.437Z,23.62
2023-01-08T00:37:38.383Z,23.60
2023-01-08T00:38:38.480Z,23.59
2023-01-08T00:39:38.316Z,23.62
2023-01-08T00:40:38.269Z,23.60
2023-01-08T00:41:38.238Z,23.62
2023-01-08T00:42:38.205Z,23.60
2023-01-08T00:43:38.163Z,23.65
2023-01-08T00:44:38.121Z,23.62
2023-01-08T00:45:38.121Z,23.62
2023-01-08T00:46:38.035Z,23.62
2023-01-08T00:47:38.005Z,23.60
2023-01-08T00:48:37.956Z,23.62
2023-01-08T00:49:37.920Z,23.59
2023-01-08T00:50:37.886Z,23.59
2023-01-08T00:51:37.842Z,23.60
2023-01-08T00:52:37.801Z,23.58
2023-01-08T00:53:37.760Z,23.59
2023-01-08T00:54:37.814Z,23.58
2023-01-08T00:55:37.687Z,23.56
2023-01-08T00:56:37.642Z,23.59
2023-01-08T00:57:37.606Z,23.58
2023-01-08T00:58:37.567Z,23.58
2023-01-08T00:59:37.545Z,23.58
2023-01-08T01:00:37.510Z,23.58
2023-01-08T01:01:37.628Z,23.59
2023-01-08T01:02:37.416Z,23.56
2023-01-08T01:03:37.386Z,23.59
2023-01-08T01:04:37.401Z,23.60
2023-01-08T01:05:37.335Z,23.56
2023-01-08T01:06:37.277Z,23.56
2023-01-08T01:07:37.244Z,23.56
2023-01-08T01:08:37.191Z,23.58
2023-01-08T01:09:37.151Z,23.55
2023-01-08T01:10:37.204Z,23.58
2023-01-08T01:11:37.072Z,23.59
2023-01-08T01:12:37.024Z,23.58
2023-01-08T01:13:37.006Z,23.58
2023-01-08T01:14:36.961Z,23.59
2023-01-08T01:15:36.910Z,23.60
2023-01-08T01:16:36.960Z,23.60
2023-01-08T01:17:36.824Z,23.59
2023-01-08T01:18:36.792Z,23.59
2023-01-08T01:19:36.759Z,23.59
2023-01-08T01:20:36.735Z,23.62
2023-01-08T01:21:36.668Z,23.63
2023-01-08T01:22:36.640Z,23.60
2023-01-08T01:23:36.591Z,23.60
2023-01-08T01:24:36.551Z,23.63
2023-01-08T01:25:36.525Z,23.60
2023-01-08T01:26:36.575Z,23.60
2023-01-08T01:27:36.443Z,23.60
2023-01-08T01:28:36.412Z,23.59
2023-01-08T01:29:36.369Z,23.58
2023-01-08T01:30:36.355Z,23.58
2023-01-08T01:31:36.301Z,23.59
2023-01-08T01:32:36.257Z,23.58
2023-01-08T01:33:36.231Z,23.55
2023-01-08T01:34:36.185Z,23.58
2023-01-08T01:35:36.152Z,23.58
2023-01-08T01:36:36.116Z,23.58
2023-01-08T01:37:36.097Z,23.59
2023-01-08T01:38:36.053Z,23.59
2023-01-08T01:39:36.013Z,23.59
2023-01-08T01:40:35.974Z,23.60
2023-01-08T01:41:35.939Z,23.59
2023-01-08T01:42:36.001Z,23.56
2023-01-08T01:43:35.873Z,23.56
2023-01-08T01:44:35.821Z,23.58
2023-01-08T01:45:35.800Z,23.55
2023-01-08T01:46:35.755Z,23.60
2023-01-08T01:47:35.729Z,23.58
2023-01-08T01:48:35.688Z,23.55
2023-01-08T01:49:35.657Z,23.55
2023-01-08T01:50:35.620Z,23.52
2023-01-08T01:51:35.571Z,23.50
2023-01-08T01:52:35.531Z,23.49
2023-01-08T01:53:35.509Z,23.48
2023-01-08T01:54:35.469Z,23.46
2023-01-08T01:55:35.432Z,23.44
2023-01-08T01:56:35.386Z,23.45
2023-01-08T01:57:35.351Z,23.42
2023-01-08T01:58:35.405Z,23.39
2023-01-08T01:59:35.277Z,23.41
2023-01-08T02:00:35.251Z,23.39
2023-01-08T02:01:35.398Z,23.39
2023-01-08T02:02:35.173Z,23.42
2023-01-08T02:03:35.260Z,23.42
2023-01-08T02:04:35.113Z,23.44
2023-01-08T02:05:35.068Z,23.44
2023-01-08T02:06:35.029Z,23.45
2023-01-08T02:07:34.977Z,23.46
2023-01-08T02:08:34.955Z,23.42
2023-01-08T02:09:34.921Z,23.41
2023-01-08T02:10:34.867Z,23.41
2023-01-08T02:11:34.834Z,23.41
2023-01-08T02:12:34.806Z,23.42
2023-01-08T02:13:34.767Z,23.39
2023-01-08T02:14:34.799Z,23.33
2023-01-08T02:15:34.670Z,23.38
2023-01-08T02:16:34.693Z,23.35
2023-01-08T02:17:34.597Z,23.37
2023-01-08T02:18:34.551Z,23.39
2023-01-08T02:19:34.516Z,23.33
2023-01-08T02:20:34.476Z,23.35
2023-01-08T02:21:34.441Z,23.35
2023-01-08T02:22:34.404Z,23.33
2023-01-08T02:23:34.373Z,23.35
2023-01-08T02:24:34.342Z,23.35
2023-01-08T02:25:34.308Z,23.31
2023-01-08T02:26:34.281Z,23.29
2023-01-08T02:27:34.241Z,23.26
2023-01-08T02:28:34.211Z,23.29
2023-01-08T02:29:34.177Z,23.31
2023-01-08T02:30:34.275Z,23.31
2023-01-08T02:31:34.099Z,23.29
2023-01-08T02:32:34.050Z,23.28
2023-01-08T02:33:34.030Z,23.31
2023-01-08T02:34:33.982Z,23.33
2023-01-08T02:35:33.939Z,23.33
2023-01-08T02:36:33.901Z,23.33
2023-01-08T02:37:33.868Z,23.31
2023-01-08T02:38:33.826Z,23.29
2023-01-08T02:39:33.804Z,23.28
2023-01-08T02:40:33.756Z,23.29
2023-01-08T02:41:33.720Z,23.32
2023-01-08T02:42:33.670Z,23.31
2023-01-08T02:43:33.634Z,23.26
2023-01-08T02:44:33.603Z,23.28
2023-01-08T02:45:33.565Z,23.31
2023-01-08T02:46:33.527Z,23.31
2023-01-08T02:47:33.502Z,23.28
2023-01-08T02:48:33.461Z,23.29
2023-01-08T02:49:33.427Z,23.29
2023-01-08T02:50:33.382Z,23.28
2023-01-08T02:51:33.349Z,23.25
2023-01-08T02:52:33.332Z,23.31
2023-01-08T02:53:33.286Z,23.32
2023-01-08T02:54:33.256Z,23.31
2023-01-08T02:55:33.205Z,23.31
2023-01-08T02:56:33.166Z,23.31
2023-01-08T02:57:33.132Z,23.29
2023-01-08T02:58:33.095Z,23.32
2023-01-08T02:59:33.056Z,23.31
2023-01-08T03:00:33.011Z,23.31
2023-01-08T03:01:33.086Z,23.29
2023-01-08T03:02:33.149Z,23.31
2023-01-08T07:25:25.959Z,23.07
2023-01-08T07:26:24.403Z,23.08
2023-01-08T07:27:24.370Z,23.10
2023-01-08T07:28:24.333Z,23.11
2023-01-08T07:29:24.304Z,23.12
2023-01-08T07:30:29.842Z,23.11
2023-01-08T07:31:25.262Z,23.12
2023-01-08T07:32:24.199Z,23.10
2023-01-08T07:33:24.165Z,23.11
2023-01-08T07:34:24.236Z,23.12
2023-01-08T07:36:24.066Z,23.14
2023-01-08T07:37:24.030Z,23.11
2023-01-08T07:38:24.003Z,23.11
2023-01-08T07:39:23.973Z,23.11
2023-01-08T07:40:23.953Z,23.11
2023-01-08T07:41:23.911Z,23.14
2023-01-08T07:42:23.871Z,23.11
2023-01-08T07:43:23.842Z,23.12
2023-01-08T07:44:23.812Z,23.12
2023-01-08T07:45:23.775Z,23.12
2023-01-08T07:46:23.750Z,23.14
2023-01-08T07:47:23.696Z,23.12
2023-01-08T07:48:23.667Z,23.12
2023-01-08T07:49:23.632Z,23.12
2023-01-08T07:50:23.690Z,23.15
2023-01-08T07:51:23.569Z,23.17
2023-01-08T07:52:23.530Z,23.14
2023-01-08T07:53:23.494Z,23.15
2023-01-08T07:54:23.475Z,23.14
2023-01-08T07:55:23.435Z,23.14
2023-01-08T07:56:23.401Z,23.15
2023-01-08T07:57:23.365Z,23.12
2023-01-08T07:58:23.336Z,23.12
2023-01-08T07:59:23.300Z,23.14
2023-01-08T08:00:23.269Z,23.14
2023-01-08T08:01:23.381Z,23.14
2023-01-08T08:02:23.418Z,23.15
2023-01-08T08:03:23.206Z,23.11
2023-01-08T08:04:23.135Z,23.08
2023-01-08T08:05:23.125Z,23.08
2023-01-08T08:06:23.166Z,23.11
2023-01-08T08:07:23.055Z,23.11
2023-01-08T08:08:23.016Z,23.10
2023-01-08T08:09:22.994Z,23.11
2023-01-08T08:10:22.961Z,23.10
2023-01-08T08:11:22.934Z,23.07
2023-01-08T09:12:21.110Z,23.19
2023-01-08T09:13:21.095Z,23.23
2023-01-08T09:14:21.048Z,23.22
2023-01-08T09:15:21.021Z,23.18
2023-01-08T09:16:21.036Z,23.18
2023-01-08T09:17:20.957Z,23.21
2023-01-08T09:18:20.929Z,23.25
2023-01-08T09:19:20.909Z,23.23
2023-01-08T09:20:20.869Z,23.26
2023-01-08T09:21:20.837Z,23.23
2023-01-08T09:22:20.836Z,23.21
2023-01-08T09:23:20.778Z,23.26
2023-01-08T09:24:20.752Z,23.25
2023-01-08T09:25:20.722Z,23.23
2023-01-08T09:26:20.779Z,23.21
2023-01-08T09:27:20.666Z,23.22
2023-01-08T09:28:20.625Z,23.22
2023-01-08T09:29:20.611Z,23.21
2023-01-08T09:30:20.578Z,23.22
2023-01-08T09:31:20.603Z,23.19
2023-01-08T09:32:20.527Z,23.22
2023-01-08T09:33:20.482Z,23.23
2023-01-08T09:34:20.459Z,23.25
2023-01-08T09:35:20.432Z,23.22
2023-01-08T09:36:20.399Z,23.21
2023-01-08T09:37:20.358Z,23.21
2023-01-08T09:38:20.334Z,23.22
2023-01-08T09:39:20.307Z,23.21
2023-01-08T09:40:20.273Z,23.25
2023-01-08T09:41:20.242Z,23.26
2023-01-08T09:42:20.313Z,23.26
2023-01-08T09:43:20.175Z,23.26
2023-01-08T09:44:20.144Z,23.23
2023-01-08T09:45:20.118Z,23.21
2023-01-08T09:46:20.156Z,23.21
2023-01-08T09:47:20.048Z,23.23
2023-01-08T09:48:20.025Z,23.26
2023-01-08T09:49:19.981Z,23.28
2023-01-08T09:50:19.953Z,23.29
2023-01-08T09:51:19.920Z,23.29
2023-01-08T09:52:19.892Z,23.28
2023-01-08T09:53:19.858Z,23.25
2023-01-08T09:54:19.828Z,23.28
2023-01-08T09:55:19.791Z,23.31
2023-01-08T09:56:19.770Z,23.29
2023-01-08T09:57:19.744Z,23.31
2023-01-08T09:58:19.804Z,23.29
2023-01-08T09:59:19.683Z,23.29
2023-01-08T10:00:19.651Z,23.32
2023-01-08T10:01:19.757Z,23.32
2023-01-08T10:02:19.722Z,23.35
2023-01-08T10:03:19.577Z,23.33
2023-01-08T10:04:19.532Z,23.32
2023-01-08T10:05:19.491Z,23.32
2023-01-08T10:06:19.461Z,23.32
2023-01-08T10:07:19.441Z,23.35
2023-01-08T10:08:19.407Z,23.35
2023-01-08T10:09:19.379Z,23.33
2023-01-08T10:10:19.354Z,23.31
2023-01-08T10:11:19.320Z,23.33
2023-01-08T10:12:19.289Z,23.31
2023-01-08T10:13:19.267Z,23.29
2023-01-08T10:14:19.334Z,23.28
2023-01-08T10:15:19.195Z,23.29
2023-01-08T10:16:19.187Z,23.29
2023-01-08T10:17:19.145Z,23.29
2023-01-08T10:18:19.136Z,23.29
2023-01-08T10:19:19.101Z,23.26
2023-01-08T10:20:19.064Z,23.23
2023-01-08T10:21:19.039Z,23.23
2023-01-08T10:22:19.013Z,23.23
2023-01-08T10:23:18.977Z,23.25
2023-01-08T10:24:18.971Z,23.23
2023-01-08T10:25:18.935Z,23.23
2023-01-08T10:26:18.904Z,23.23
2023-01-08T10:27:18.867Z,23.23
2023-01-08T10:28:18.831Z,23.26
2023-01-08T10:29:18.810Z,23.28
2023-01-08T10:30:18.774Z,23.26
2023-01-08T10:31:18.756Z,23.28
2023-01-08T10:32:18.705Z,23.26
2023-01-08T10:33:18.677Z,23.28
2023-01-08T10:34:18.658Z,23.25
2023-01-08T10:35:18.656Z,23.25
2023-01-08T10:36:18.602Z,23.26
2023-01-08T10:37:18.566Z,23.26
2023-01-08T10:38:18.521Z,23.25
2023-01-08T10:39:18.489Z,23.29
2023-01-08T10:40:18.452Z,23.26
2023-01-08T10:41:18.465Z,23.25
2023-01-08T10:42:18.396Z,23.22
2023-01-08T10:43:18.380Z,23.25
2023-01-08T10:44:18.337Z,23.23
2023-01-08T10:45:18.304Z,23.26
2023-01-08T10:46:18.365Z,23.26
2023-01-08T10:47:18.244Z,23.26
2023-01-08T10:48:18.227Z,23.26
2023-01-08T10:49:18.202Z,23.26
2023-01-08T10:50:18.154Z,23.25
2023-01-08T10:51:18.124Z,23.25
2023-01-08T10:52:18.074Z,23.25
2023-01-08T10:53:18.045Z,23.23
2023-01-08T10:54:18.017Z,23.21
2023-01-08T10:55:17.990Z,23.25
2023-01-08T10:56:17.960Z,23.23
2023-01-08T10:57:17.922Z,23.23
2023-01-08T10:58:17.900Z,23.23
2023-01-08T10:59:17.856Z,23.25
2023-01-08T11:00:17.810Z,23.25
2023-01-08T11:01:17.840Z,23.25
2023-01-08T11:02:17.776Z,23.26
2023-01-08T11:03:17.731Z,23.26
2023-01-08T11:04:17.698Z,23.22
2023-01-08T11:05:17.662Z,23.21
2023-01-08T11:06:17.627Z,23.23
2023-01-08T11:07:17.598Z,23.26
2023-01-08T11:08:17.561Z,23.28
2023-01-08T11:09:17.539Z,23.28
2023-01-08T11:10:17.505Z,23.29
2023-01-08T11:11:17.453Z,23.28
2023-01-08T11:12:17.416Z,23.32
2023-01-08T11:13:17.393Z,23.31
2023-01-08T11:14:17.355Z,23.29
2023-01-08T11:15:17.313Z,23.29
2023-01-08T11:16:17.322Z,23.29
2023-01-08T11:17:17.254Z,23.31
2023-01-08T11:18:17.223Z,23.31
2023-01-08T11:19:17.728Z,23.31
2023-01-08T11:20:17.159Z,23.32
2023-01-08T11:21:17.126Z,23.29
2023-01-08T11:22:17.092Z,23.29
2023-01-08T11:23:17.059Z,23.33
2023-01-08T11:24:17.037Z,23.33
2023-01-08T11:25:17.015Z,23.32
2023-01-08T11:26:16.997Z,23.33
2023-01-08T11:27:16.958Z,23.37
2023-01-08T11:28:16.929Z,23.39
2023-01-08T11:29:16.892Z,23.38
2023-01-08T11:30:16.867Z,23.37
2023-01-08T11:31:16.881Z,23.37
2023-01-08T11:32:16.803Z,23.35
2023-01-08T11:33:16.773Z,23.39
2023-01-08T11:34:16.740Z,23.33
2023-01-08T11:35:16.709Z,23.39
2023-01-08T11:36:16.682Z,23.33
2023-01-08T11:37:16.641Z,23.33
2023-01-08T11:38:16.609Z,23.37
2023-01-08T11:39:16.579Z,23.35
2023-01-08T11:40:16.531Z,23.35
2023-01-08T11:41:16.501Z,23.33
2023-01-08T11:42:16.465Z,23.35
2023-01-08T11:43:16.428Z,23.35
2023-01-08T11:44:16.388Z,23.38
2023-01-08T11:45:16.364Z,23.38
2023-01-08T11:46:16.324Z,23.33
2023-01-08T11:47:16.292Z,23.31
2023-01-08T11:48:16.265Z,23.31
2023-01-08T11:49:16.232Z,23.35
2023-01-08T11:50:16.195Z,23.33
2023-01-08T11:51:16.152Z,23.35
2023-01-08T11:52:16.113Z,23.35
2023-01-08T11:53:16.084Z,23.35
2023-01-08T11:54:16.029Z,23.38
2023-01-08T11:55:16.005Z,23.38
2023-01-08T11:56:15.977Z,23.38
2023-01-08T11:57:15.936Z,23.38
2023-01-08T11:58:15.902Z,23.37
2023-01-08T11:59:15.849Z,23.39
2023-01-08T12:00:15.825Z,23.44
2023-01-08T12:01:15.806Z,23.45
2023-01-08T12:02:15.771Z,23.42
2023-01-08T12:03:15.703Z,23.45
2023-01-08T12:04:15.649Z,23.41
2023-01-08T12:05:15.614Z,23.44
2023-01-08T12:06:15.563Z,23.45
2023-01-08T12:07:15.520Z,23.44
2023-01-08T12:08:15.483Z,23.42
2023-01-08T12:09:15.445Z,23.38
2023-01-08T12:10:15.421Z,23.41
2023-01-08T12:11:15.399Z,23.39
2023-01-08T12:12:15.354Z,23.39
2023-01-08T12:13:15.320Z,23.39
2023-01-08T12:14:15.294Z,23.39
2023-01-08T12:15:15.256Z,23.41
2023-01-08T12:16:15.294Z,23.42
2023-01-08T12:17:15.194Z,23.45
2023-01-08T12:18:15.155Z,23.45
2023-01-08T12:19:15.122Z,23.41
2023-01-08T12:20:15.077Z,23.42
2023-01-08T12:21:15.038Z,23.44
2023-01-08T12:22:15.001Z,23.42
2023-01-08T12:23:14.952Z,23.46
2023-01-08T12:24:14.937Z,23.45
2023-01-08T12:25:14.885Z,23.45
2023-01-08T12:26:14.869Z,23.45
2023-01-08T12:27:14.836Z,23.46
2023-01-08T12:28:14.790Z,23.44
2023-01-08T12:29:14.747Z,23.44
2023-01-08T12:30:14.723Z,23.41
2023-01-08T12:31:14.716Z,23.42
2023-01-08T12:32:14.724Z,23.41
2023-01-08T12:33:14.607Z,23.41
2023-01-08T12:34:14.577Z,23.42
2023-01-08T12:35:14.549Z,23.38
2023-01-08T12:36:14.519Z,23.38
2023-01-08T12:37:14.474Z,23.38
2023-01-08T12:38:14.438Z,23.41
2023-01-08T12:39:14.399Z,23.39
2023-01-08T12:40:14.367Z,23.39
2023-01-08T12:41:14.342Z,23.39
2023-01-08T12:42:14.285Z,23.39
2023-01-08T12:43:14.247Z,23.41
2023-01-08T12:44:14.226Z,23.39
2023-01-08T12:45:14.179Z,23.41
2023-01-08T12:46:14.179Z,23.38
2023-01-08T12:47:14.108Z,23.38
2023-01-08T12:48:14.100Z,23.39
2023-01-08T12:49:14.048Z,23.39
2023-01-08T12:50:14.007Z,23.39
2023-01-08T12:51:13.950Z,23.38
2023-01-08T12:52:13.915Z,23.37
2023-01-08T12:53:13.904Z,23.38
2023-01-08T12:54:13.869Z,23.38
2023-01-08T12:55:13.812Z,23.37
2023-01-08T12:56:13.793Z,23.32
2023-01-08T12:57:13.752Z,23.32
2023-01-08T12:58:13.708Z,23.32
2023-01-08T12:59:13.678Z,23.32
2023-01-08T13:00:13.649Z,23.32
2023-01-08T13:01:13.731Z,23.31
2023-01-08T13:02:13.676Z,23.28
2023-01-08T13:03:13.552Z,23.29
2023-01-08T13:04:13.534Z,23.26
2023-01-08T13:05:13.504Z,23.29
2023-01-08T13:06:13.474Z,23.28
2023-01-08T13:07:13.428Z,23.23
2023-01-08T13:08:13.403Z,23.26
2023-01-08T13:09:13.367Z,23.25
2023-01-08T13:10:13.342Z,23.26
2023-01-08T13:11:13.293Z,23.23
2023-01-08T13:12:13.251Z,23.26
2023-01-08T13:13:13.210Z,23.22
2023-01-08T13:14:13.178Z,23.21
2023-01-08T13:15:13.155Z,23.23
2023-01-08T13:16:13.134Z,23.26
2023-01-08T13:17:13.077Z,23.28
2023-01-08T13:18:13.059Z,23.26
2023-01-08T13:19:13.008Z,23.26
2023-01-08T13:20:12.968Z,23.26
2023-01-08T13:21:12.938Z,23.29
2023-01-08T13:22:12.897Z,23.29
2023-01-08T13:23:12.859Z,23.32
2023-01-08T13:24:12.825Z,23.29
2023-01-08T13:25:12.791Z,23.26
2023-01-08T13:26:12.854Z,23.26
2023-01-08T13:27:12.737Z,23.26
2023-01-08T13:28:12.707Z,23.26
2023-01-08T13:29:12.675Z,23.26
2023-01-08T13:30:12.654Z,23.22
2023-01-08T13:31:12.607Z,23.23
2023-01-08T13:32:12.584Z,23.26
2023-01-08T13:33:12.565Z,23.26
2023-01-08T13:34:12.541Z,23.25
2023-01-08T13:35:12.504Z,23.28
2023-01-08T13:36:12.444Z,23.23
2023-01-08T13:37:26.923Z,23.26
2023-01-08T13:38:13.400Z,23.28
2023-01-08T13:39:12.364Z,23.26
2023-01-08T13:40:12.341Z,23.26
2023-01-08T13:41:12.295Z,23.26
2023-01-08T13:42:12.263Z,23.25
2023-01-08T13:43:12.251Z,23.29
2023-01-08T13:44:12.210Z,23.29
2023-01-08T13:45:12.180Z,23.29
2023-01-08T13:46:12.177Z,23.28
2023-01-08T13:47:12.126Z,23.31
2023-01-08T13:48:12.081Z,23.31
2023-01-08T13:49:12.049Z,23.29
2023-01-08T13:50:12.024Z,23.25
2023-01-08T13:51:11.989Z,23.29
2023-01-08T13:52:11.960Z,23.26
2023-01-08T13:53:11.931Z,23.26
2023-01-08T13:54:11.925Z,23.28
2023-01-08T13:55:11.878Z,23.28
2023-01-08T13:56:11.844Z,23.26
2023-01-08T13:57:11.809Z,23.26
2023-01-08T13:58:11.786Z,23.28
2023-01-08T13:59:11.751Z,23.26
2023-01-08T14:00:11.726Z,23.25
2023-01-08T14:01:11.774Z,23.26
2023-01-08T14:02:11.722Z,23.25
2023-01-08T14:03:11.629Z,23.28
2023-01-08T14:04:11.596Z,23.29
2023-01-08T14:05:11.566Z,23.25
2023-01-08T14:06:11.557Z,23.26
2023-01-08T14:07:11.517Z,23.28
2023-01-08T14:08:11.476Z,23.28
2023-01-08T14:09:11.449Z,23.31
2023-01-08T14:10:11.481Z,23.33
2023-01-08T14:11:11.387Z,23.31
2023-01-08T14:12:11.347Z,23.32
2023-01-08T14:13:11.316Z,23.32
2023-01-08T14:14:11.280Z,23.31
2023-01-08T14:15:11.259Z,23.33
2023-01-08T14:16:11.274Z,23.31
2023-01-08T14:17:11.183Z,23.31
2023-01-08T14:18:11.152Z,23.31
2023-01-08T14:19:11.116Z,23.33
2023-01-08T14:20:11.085Z,23.31
2023-01-08T14:21:11.046Z,23.32
2023-01-08T14:22:11.017Z,23.32
2023-01-08T14:23:10.998Z,23.31
2023-01-08T14:24:10.956Z,23.31
2023-01-08T14:25:12.365Z,23.31
2023-01-08T14:26:10.898Z,23.29
2023-01-08T14:27:10.854Z,23.31
2023-01-08T14:28:10.823Z,23.31
2023-01-08T14:29:10.788Z,23.31
2023-01-08T14:30:10.752Z,23.32
2023-01-08T14:31:10.715Z,23.31
2023-01-08T14:32:10.687Z,23.32
2023-01-08T14:33:10.657Z,23.31
2023-01-08T14:34:10.641Z,23.33
2023-01-08T14:35:10.588Z,23.32
2023-01-08T14:36:10.557Z,23.35
2023-01-08T14:37:10.515Z,23.33
2023-01-08T14:38:10.486Z,23.31
2023-01-08T14:39:10.457Z,23.33
2023-01-08T14:40:10.415Z,23.32
2023-01-08T14:41:10.380Z,23.32
2023-01-08T14:42:10.339Z,23.33
2023-01-08T14:43:10.312Z,23.33
2023-01-08T14:44:10.282Z,23.33
2023-01-08T14:45:10.231Z,23.33
2023-01-08T14:46:10.276Z,23.33
2023-01-08T14:47:10.163Z,23.31
2023-01-08T14:48:10.122Z,23.29
2023-01-08T14:49:10.091Z,23.31
2023-01-08T14:50:10.060Z,23.31
2023-01-08T14:51:10.023Z,23.32
2023-01-08T14:52:09.991Z,23.31
2023-01-08T14:53:09.951Z,23.31
2023-01-08T14:54:09.927Z,23.32
2023-01-08T14:55:09.895Z,23.32
2023-01-08T14:56:09.857Z,23.37
2023-01-08T14:57:09.816Z,23.35
2023-01-08T14:58:09.797Z,23.35
2023-01-08T14:59:09.768Z,23.33
2023-01-08T15:00:09.734Z,23.37
2023-01-08T15:01:09.860Z,23.37
2023-01-08T15:02:09.881Z,23.35
2023-01-08T15:03:09.616Z,23.35
2023-01-08T15:04:09.585Z,23.35
2023-01-08T15:05:09.537Z,23.37
2023-01-08T15:06:09.506Z,23.37
2023-01-08T15:07:09.463Z,23.37
2023-01-08T15:08:09.434Z,23.33
2023-01-08T15:09:10.298Z,23.37
2023-01-08T15:10:09.364Z,23.33
2023-01-08T15:11:09.336Z,23.33
2023-01-08T15:12:09.294Z,23.32
2023-01-08T15:13:09.261Z,23.32
2023-01-08T15:14:09.228Z,23.33
2023-01-08T15:15:09.212Z,23.35
2023-01-08T15:16:09.192Z,23.35
2023-01-08T15:17:09.124Z,23.32
2023-01-08T15:18:09.082Z,23.33
2023-01-08T15:19:09.041Z,23.31
2023-01-08T15:20:09.015Z,23.31
2023-01-08T15:21:09.182Z,23.32
2023-01-08T15:22:08.949Z,23.32
2023-01-08T15:23:08.897Z,23.33
2023-01-08T15:24:08.870Z,23.33
2023-01-08T15:25:08.842Z,23.32
2023-01-08T15:26:08.801Z,23.32
2023-01-08T15:27:08.757Z,23.33
2023-01-08T15:28:08.736Z,23.29
2023-01-08T15:29:08.694Z,23.31
2023-01-08T15:30:08.677Z,23.32
2023-01-08T15:31:08.623Z,23.29
2023-01-08T15:32:08.585Z,23.32
2023-01-08T15:33:08.555Z,23.33
2023-01-08T15:34:08.525Z,23.31
2023-01-08T15:35:08.498Z,23.31
2023-01-08T15:36:08.472Z,23.29
2023-01-08T15:37:08.422Z,23.31
2023-01-08T15:38:08.388Z,23.32
2023-01-08T15:39:08.355Z,23.31
2023-01-08T15:40:08.323Z,23.32
2023-01-08T15:41:08.279Z,23.32
2023-01-08T15:42:08.245Z,23.33
2023-01-08T15:43:08.208Z,23.31
2023-01-08T15:44:08.184Z,23.29
2023-01-08T15:45:08.137Z,23.29
2023-01-08T15:46:08.132Z,23.31
2023-01-08T15:47:08.082Z,23.28
2023-01-08T15:48:08.050Z,23.28
2023-01-08T15:49:08.036Z,23.25
2023-01-08T15:50:08.046Z,23.26
2023-01-08T15:51:07.946Z,23.28
2023-01-08T15:52:07.908Z,23.29
2023-01-08T15:53:07.873Z,23.28
2023-01-08T15:54:07.841Z,23.28
2023-01-08T15:55:07.816Z,23.26
2023-01-08T15:56:07.779Z,23.26
2023-01-08T15:57:07.731Z,23.28
2023-01-08T15:58:07.689Z,23.31
2023-01-08T15:59:07.655Z,23.23
2023-01-08T16:00:07.612Z,23.23
2023-01-08T16:01:07.616Z,23.25
2023-01-08T16:02:07.649Z,23.22
2023-01-08T16:03:07.502Z,23.23
2023-01-08T16:04:07.490Z,23.23
2023-01-08T16:05:07.439Z,23.23
2023-01-08T16:06:07.448Z,23.25
2023-01-08T16:07:07.354Z,23.22
2023-01-08T16:08:07.320Z,23.22
2023-01-08T16:09:07.283Z,23.22
2023-01-08T16:10:07.243Z,23.25
2023-01-08T16:11:07.211Z,23.22
2023-01-08T16:12:07.188Z,23.23
2023-01-08T16:13:07.138Z,23.22
2023-01-08T16:14:07.084Z,23.25
2023-01-08T16:15:07.056Z,23.23
2023-01-08T16:16:07.034Z,23.23
2023-01-08T16:17:06.986Z,23.26
2023-01-08T16:18:06.956Z,23.22
2023-01-08T16:19:06.913Z,23.23
2023-01-08T16:20:06.881Z,23.25
2023-01-08T16:21:06.844Z,23.25
2023-01-08T16:22:06.804Z,23.25
2023-01-08T16:23:06.763Z,23.25
2023-01-08T16:24:06.724Z,23.26
2023-01-08T16:25:06.684Z,23.25
2023-01-08T16:26:06.656Z,23.29
2023-01-08T16:27:06.606Z,23.28
2023-01-08T16:28:06.610Z,23.26
2023-01-08T16:29:06.530Z,23.25
2023-01-08T16:30:06.502Z,23.28
2023-01-08T16:31:06.478Z,23.28
2023-01-08T16:32:06.435Z,23.28
2023-01-08T16:33:06.402Z,23.26
2023-01-08T16:34:06.363Z,23.31
2023-01-08T16:35:06.313Z,23.32
2023-01-08T16:36:06.280Z,23.31
2023-01-08T16:37:06.237Z,23.28
2023-01-08T16:38:06.208Z,23.28
2023-01-08T16:39:06.169Z,23.28
2023-01-08T16:40:06.139Z,23.31
2023-01-08T16:41:06.107Z,23.31
2023-01-08T16:42:06.063Z,23.26
2023-01-08T16:43:06.029Z,23.28
2023-01-08T16:44:05.983Z,23.26
2023-01-08T16:45:05.965Z,23.29
2023-01-08T16:46:06.024Z,23.28
2023-01-08T16:47:05.911Z,23.23
2023-01-08T16:48:05.859Z,23.22
2023-01-08T16:49:05.830Z,23.25
2023-01-08T16:50:05.807Z,23.26
2023-01-08T16:51:05.778Z,23.26
2023-01-08T16:52:05.740Z,23.23
2023-01-08T16:53:05.712Z,23.23
2023-01-08T16:54:05.693Z,23.22
2023-01-08T16:55:05.653Z,23.22
2023-01-08T16:56:05.629Z,23.26
2023-01-08T16:57:05.612Z,23.22
2023-01-08T16:58:05.561Z,23.21
2023-01-08T16:59:14.908Z,23.21
2023-01-08T17:00:06.516Z,23.22
2023-01-08T17:01:05.527Z,23.22
2023-01-08T17:02:05.449Z,23.21
2023-01-08T17:03:05.411Z,23.22
2023-01-08T17:04:05.467Z,23.18
2023-01-08T17:05:05.353Z,23.15
2023-01-08T17:06:05.304Z,23.21
2023-01-08T17:07:05.275Z,23.22
2023-01-08T17:08:05.229Z,23.18
2023-01-08T17:09:05.208Z,23.17
2023-01-08T17:10:05.158Z,23.17
2023-01-08T17:11:05.128Z,23.15
2023-01-08T17:12:05.101Z,23.19
2023-01-08T17:13:05.063Z,23.17
2023-01-08T17:14:05.026Z,23.18
2023-01-08T17:15:04.992Z,23.14
2023-01-08T17:16:05.000Z,23.14
2023-01-08T17:17:04.945Z,23.17
2023-01-08T17:18:04.901Z,23.17
2023-01-08T17:19:04.879Z,23.14
2023-01-08T17:20:04.830Z,23.14
2023-01-08T17:21:04.806Z,23.11
2023-01-08T17:22:04.766Z,23.15
2023-01-08T17:23:04.745Z,23.17
2023-01-08T17:24:04.704Z,23.14
2023-01-08T17:25:04.679Z,23.12
2023-01-08T17:26:04.656Z,23.11
2023-01-08T17:27:04.612Z,23.12
2023-01-08T17:28:04.573Z,23.14
2023-01-08T17:29:04.548Z,23.14
2023-01-08T17:30:04.519Z,23.12
2023-01-08T17:31:04.615Z,23.15
2023-01-08T17:32:04.446Z,23.15
2023-01-08T17:33:04.422Z,23.17
2023-01-08T17:34:04.399Z,23.14
2023-01-08T17:35:04.352Z,23.15
2023-01-08T17:36:04.317Z,23.18
2023-01-08T17:37:04.292Z,23.17
2023-01-08T17:38:04.263Z,23.17
2023-01-08T17:39:04.236Z,23.17
2023-01-08T17:40:04.228Z,23.14
2023-01-08T17:41:04.177Z,23.11
2023-01-08T17:42:04.134Z,23.11
2023-01-08T17:43:04.112Z,23.15
2023-01-08T17:44:04.073Z,23.14
2023-01-08T17:45:04.055Z,23.14
2023-01-08T17:46:04.049Z,23.12
2023-01-08T17:47:03.981Z,23.12
2023-01-08T17:48:03.948Z,23.14
2023-01-08T17:49:03.924Z,23.17
2023-01-08T17:50:03.885Z,23.12
2023-01-08T17:51:03.858Z,23.12
2023-01-08T17:52:03.823Z,23.15
2023-01-08T17:53:03.808Z,23.17
2023-01-08T17:54:03.762Z,23.18
2023-01-08T17:55:03.715Z,23.18
2023-01-08T17:56:03.694Z,23.18
2023-01-08T17:57:03.655Z,23.19
2023-01-08T17:58:03.615Z,23.19
2023-01-08T17:59:03.577Z,23.15
2023-01-08T18:00:03.536Z,23.15
2023-01-08T18:01:03.560Z,23.18
2023-01-08T18:02:03.627Z,23.18
2023-01-08T18:03:03.445Z,23.17
2023-01-08T18:04:03.393Z,23.19
2023-01-08T18:05:03.365Z,23.18
2023-01-08T18:06:03.330Z,23.19
2023-01-08T18:07:03.297Z,23.21
2023-01-08T18:08:03.270Z,23.18
2023-01-08T18:09:03.228Z,23.22
2023-01-08T18:10:03.191Z,23.18
2023-01-08T18:11:03.163Z,23.19
2023-01-08T18:12:03.136Z,23.21
2023-01-08T18:13:03.106Z,23.18
2023-01-08T18:14:03.083Z,23.19
2023-01-08T18:15:03.040Z,23.22